Time,TemperatureF,DewpointF,PressureIn,WindDirection,WindDirectionDegrees,WindSpeedMPH,WindSpeedGustMPH,Humidity,HourlyPrecipIn,Conditions,Clouds,dailyrainin,SoftwareType,DateUTC
2013-07-27 00:00:00,64.9,56.5,29.99,West,277,0.0,1.0,74,0.00,,,0.00,meteohub,2013-07-27 04:00:00,
2013-07-27 00:01:00,64.9,56.5,29.99,West,277,0.0,1.0,74,0.00,,,0.00,meteohub,2013-07-27 04:01:00,
2013-07-27 00:02:00,64.9,56.5,29.99,West,277,0.0,1.0,74,0.00,,,0.00,meteohub,2013-07-27 04:02:00,
2013-07-27 00:03:00,64.9,56.5,29.99,West,277,1.0,1.0,74,0.00,,,0.00,meteohub,2013-07-27 04:03:00,
2013-07-27 00:08:00,64.9,56.5,29.99,WNW,293,0.0,4.0,74,0.00,,,0.00,meteohub,2013-07-27 04:08:00,
2013-07-27 00:13:00,64.9,56.1,29.98,WNW,293,0.0,4.0,73,0.00,,,0.00,meteohub,2013-07-27 04:13:00,
2013-07-27 00:18:00,65.1,56.7,29.99,WNW,293,0.0,4.0,74,0.00,,,0.00,meteohub,2013-07-27 04:18:00,
2013-07-27 00:23:00,64.9,56.5,29.98,WNW,293,0.0,2.0,74,0.00,,,0.00,meteohub,2013-07-27 04:23:00,
2013-07-27 00:29:00,64.8,56.3,29.98,WNW,293,0.0,1.0,74,0.00,,,0.00,meteohub,2013-07-27 04:29:00,
2013-07-27 00:34:00,64.9,56.5,29.98,WNW,293,0.0,1.0,74,0.00,,,0.00,meteohub,2013-07-27 04:34:00,
2013-07-27 00:39:00,65.1,56.3,29.98,WNW,293,0.0,1.0,73,0.00,,,0.00,meteohub,2013-07-27 04:39:00,
2013-07-27 00:44:00,65.3,56.5,29.98,WNW,293,0.0,2.0,73,0.00,,,0.00,meteohub,2013-07-27 04:44:00,
2013-07-27 00:49:00,65.3,56.5,29.98,WNW,293,0.0,2.0,73,0.00,,,0.00,meteohub,2013-07-27 04:49:00,
2013-07-27 00:54:00,65.5,56.7,29.97,WNW,293,0.0,1.0,73,0.00,,,0.00,meteohub,2013-07-27 04:54:00,
2013-07-27 00:59:00,65.3,56.8,29.97,WNW,293,0.0,1.0,74,0.00,,,0.00,meteohub,2013-07-27 04:59:00,
2013-07-27 01:04:00,65.1,56.7,29.97,WNW,293,0.0,1.0,74,0.00,,,0.00,meteohub,2013-07-27 05:04:00,
2013-07-27 01:09:00,64.9,56.5,29.97,WNW,293,0.0,1.0,74,0.00,,,0.00,meteohub,2013-07-27 05:09:00,
2013-07-27 01:14:00,64.8,57.0,29.97,WNW,293,0.0,1.0,76,0.00,,,0.00,meteohub,2013-07-27 05:14:00,
2013-07-27 01:20:00,64.8,57.0,29.96,WNW,293,0.0,1.0,76,0.00,,,0.00,meteohub,2013-07-27 05:20:00,
2013-07-27 01:25:00,64.8,57.0,29.96,WNW,293,0.0,2.0,76,0.00,,,0.00,meteohub,2013-07-27 05:25:00,
2013-07-27 01:30:00,64.8,57.0,29.96,WNW,293,0.0,2.0,76,0.00,,,0.00,meteohub,2013-07-27 05:30:00,
2013-07-27 01:35:00,64.8,56.7,29.96,WNW,293,1.0,2.0,75,0.00,,,0.00,meteohub,2013-07-27 05:35:00,
2013-07-27 01:40:00,64.9,56.8,29.96,WNW,293,1.0,1.0,75,0.00,,,0.00,meteohub,2013-07-27 05:40:00,
2013-07-27 01:45:00,65.1,57.0,29.96,WNW,293,0.0,3.0,75,0.00,,,0.00,meteohub,2013-07-27 05:45:00,
2013-07-27 01:51:00,65.3,57.2,29.96,WNW,293,2.0,3.0,75,0.00,,,0.00,meteohub,2013-07-27 05:51:00,
2013-07-27 01:56:00,65.5,57.4,29.96,WNW,293,0.0,3.0,75,0.00,,,0.00,meteohub,2013-07-27 05:56:00,
2013-07-27 02:01:00,65.7,57.6,29.96,WNW,293,0.0,3.0,75,0.00,,,0.00,meteohub,2013-07-27 06:01:00,
2013-07-27 02:06:00,65.8,57.7,29.96,WNW,293,0.0,3.0,75,0.00,,,0.00,meteohub,2013-07-27 06:06:00,
2013-07-27 02:12:00,65.8,57.7,29.95,WNW,293,0.0,3.0,75,0.00,,,0.00,meteohub,2013-07-27 06:12:00,
2013-07-27 02:17:00,65.7,57.6,29.94,WNW,293,0.0,3.0,75,0.00,,,0.00,meteohub,2013-07-27 06:17:00,
2013-07-27 02:22:00,65.5,57.7,29.94,WNW,293,0.0,3.0,76,0.00,,,0.00,meteohub,2013-07-27 06:22:00,
2013-07-27 02:27:00,65.3,57.6,29.94,WNW,293,1.0,2.0,76,0.00,,,0.00,meteohub,2013-07-27 06:27:00,
2013-07-27 02:32:00,65.3,57.6,29.94,NW,308,4.0,4.0,76,0.00,,,0.00,meteohub,2013-07-27 06:32:00,
2013-07-27 02:37:00,65.5,57.7,29.94,WNW,302,0.0,4.0,76,0.00,,,0.00,meteohub,2013-07-27 06:37:00,
2013-07-27 02:42:00,65.7,57.9,29.94,WNW,302,0.0,4.0,76,0.00,,,0.00,meteohub,2013-07-27 06:42:00,
2013-07-27 02:47:00,65.8,58.1,29.94,WNW,302,0.0,4.0,76,0.00,,,0.00,meteohub,2013-07-27 06:47:00,
2013-07-27 02:52:00,65.8,58.1,29.94,WNW,302,0.0,2.0,76,0.00,,,0.00,meteohub,2013-07-27 06:52:00,
2013-07-27 02:57:00,65.7,58.3,29.94,WNW,302,0.0,3.0,77,0.00,,,0.00,meteohub,2013-07-27 06:57:00,
2013-07-27 03:02:00,65.3,58.6,29.94,WNW,302,1.0,3.0,79,0.00,,,0.00,meteohub,2013-07-27 07:02:00,
2013-07-27 03:08:00,64.9,58.6,29.94,WNW,302,0.0,3.0,80,0.00,,,0.00,meteohub,2013-07-27 07:08:00,
2013-07-27 03:13:00,64.6,58.6,29.94,WNW,302,0.0,1.0,81,0.00,,,0.00,meteohub,2013-07-27 07:13:00,
2013-07-27 03:18:00,64.2,58.6,29.93,WNW,302,0.0,1.0,82,0.00,,,0.00,meteohub,2013-07-27 07:18:00,
2013-07-27 03:23:00,63.7,58.1,29.93,WNW,302,0.0,0.0,82,0.00,,,0.00,meteohub,2013-07-27 07:23:00,
2013-07-27 03:28:00,63.1,57.9,29.93,WNW,302,0.0,1.0,83,0.00,,,0.00,meteohub,2013-07-27 07:28:00,
2013-07-27 03:33:00,62.6,57.7,29.93,WNW,302,0.0,1.0,84,0.00,,,0.00,meteohub,2013-07-27 07:33:00,
2013-07-27 03:38:00,62.4,57.9,29.93,WNW,302,0.0,1.0,85,0.00,,,0.00,meteohub,2013-07-27 07:38:00,
2013-07-27 03:43:00,62.2,57.9,29.93,WNW,302,0.0,1.0,86,0.00,,,0.00,meteohub,2013-07-27 07:43:00,
2013-07-27 03:49:00,62.4,57.9,29.93,WNW,302,0.0,0.0,85,0.00,,,0.00,meteohub,2013-07-27 07:49:00,
2013-07-27 03:54:00,62.8,57.9,29.93,WNW,302,1.0,3.0,84,0.00,,,0.00,meteohub,2013-07-27 07:54:00,
2013-07-27 03:59:00,63.1,58.3,29.93,WNW,302,0.0,3.0,84,0.00,,,0.00,meteohub,2013-07-27 07:59:00,
2013-07-27 04:04:00,63.1,58.3,29.93,WNW,302,0.0,3.0,84,0.00,,,0.00,meteohub,2013-07-27 08:04:00,
2013-07-27 04:09:00,62.8,57.9,29.93,WNW,302,0.0,3.0,84,0.00,,,0.00,meteohub,2013-07-27 08:09:00,
2013-07-27 04:15:00,62.2,57.4,29.93,WNW,302,0.0,3.0,84,0.00,,,0.00,meteohub,2013-07-27 08:15:00,
2013-07-27 04:20:00,61.9,57.4,29.93,WNW,302,0.0,0.0,85,0.00,,,0.00,meteohub,2013-07-27 08:20:00,
2013-07-27 04:25:00,61.5,57.4,29.92,WNW,302,0.0,0.0,86,0.00,,,0.00,meteohub,2013-07-27 08:25:00,
2013-07-27 04:30:00,61.2,57.2,29.92,WNW,302,0.0,0.0,87,0.00,,,0.00,meteohub,2013-07-27 08:30:00,
2013-07-27 04:35:00,60.8,56.8,29.92,WNW,302,0.0,0.0,87,0.00,,,0.00,meteohub,2013-07-27 08:35:00,
2013-07-27 04:40:00,60.4,56.8,29.92,WNW,302,0.0,0.0,88,0.00,,,0.00,meteohub,2013-07-27 08:40:00,
2013-07-27 04:46:00,60.4,57.2,29.92,WNW,302,0.0,0.0,89,0.00,,,0.00,meteohub,2013-07-27 08:46:00,
2013-07-27 04:51:00,60.3,57.0,29.92,WNW,302,0.0,0.0,89,0.00,,,0.00,meteohub,2013-07-27 08:51:00,
2013-07-27 04:56:00,60.1,56.8,29.92,WNW,302,0.0,0.0,89,0.00,,,0.00,meteohub,2013-07-27 08:56:00,
2013-07-27 05:01:00,59.9,57.0,29.92,WNW,302,0.0,0.0,90,0.00,,,0.00,meteohub,2013-07-27 09:01:00,
2013-07-27 05:06:00,59.7,56.8,29.92,WNW,302,0.0,0.0,90,0.00,,,0.00,meteohub,2013-07-27 09:06:00,
2013-07-27 05:11:00,59.7,56.8,29.92,WNW,302,0.0,0.0,90,0.00,,,0.00,meteohub,2013-07-27 09:11:00,
2013-07-27 05:16:00,59.5,56.8,29.92,WNW,302,0.0,0.0,91,0.00,,,0.00,meteohub,2013-07-27 09:16:00,
2013-07-27 05:21:00,59.5,56.8,29.92,WNW,302,0.0,0.0,91,0.00,,,0.00,meteohub,2013-07-27 09:21:00,
2013-07-27 05:27:00,59.4,56.7,29.92,WNW,302,0.0,0.0,91,0.00,,,0.00,meteohub,2013-07-27 09:27:00,
2013-07-27 05:32:00,59.4,56.7,29.92,WNW,302,0.0,0.0,91,0.00,,,0.00,meteohub,2013-07-27 09:32:00,
2013-07-27 05:37:00,59.2,56.8,29.92,WNW,302,0.0,0.0,92,0.00,,,0.00,meteohub,2013-07-27 09:37:00,
2013-07-27 05:42:00,59.2,56.8,29.92,WNW,302,0.0,0.0,92,0.00,,,0.00,meteohub,2013-07-27 09:42:00,
2013-07-27 05:47:00,59.2,56.8,29.92,WNW,302,0.0,0.0,92,0.00,,,0.00,meteohub,2013-07-27 09:47:00,
2013-07-27 05:52:00,59.0,57.0,29.92,WNW,302,0.0,0.0,93,0.00,,,0.00,meteohub,2013-07-27 09:52:00,
2013-07-27 05:57:00,59.0,57.0,29.92,WNW,302,0.0,0.0,93,0.00,,,0.00,meteohub,2013-07-27 09:57:00,
2013-07-27 06:02:00,58.8,56.8,29.92,WNW,302,0.0,0.0,93,0.00,,,0.00,meteohub,2013-07-27 10:02:00,
2013-07-27 06:07:00,59.0,57.0,29.92,WNW,302,0.0,0.0,93,0.00,,,0.00,meteohub,2013-07-27 10:07:00,
2013-07-27 06:12:00,59.2,57.2,29.92,WNW,302,0.0,0.0,93,0.00,,,0.00,meteohub,2013-07-27 10:12:00,
2013-07-27 06:17:00,59.4,57.6,29.92,WNW,302,0.0,0.0,94,0.00,,,0.00,meteohub,2013-07-27 10:17:00,
2013-07-27 06:22:00,59.5,57.7,29.92,WNW,302,0.0,0.0,94,0.00,,,0.00,meteohub,2013-07-27 10:22:00,
2013-07-27 06:28:00,59.5,57.6,29.92,WNW,302,0.0,0.0,93,0.00,,,0.00,meteohub,2013-07-27 10:28:00,
2013-07-27 06:33:00,59.7,57.7,29.92,WNW,302,0.0,0.0,93,0.00,,,0.00,meteohub,2013-07-27 10:33:00,
2013-07-27 06:38:00,59.9,57.9,29.92,WNW,302,0.0,0.0,93,0.00,,,0.00,meteohub,2013-07-27 10:38:00,
2013-07-27 06:43:00,60.1,58.1,29.92,WNW,302,0.0,0.0,93,0.00,,,0.00,meteohub,2013-07-27 10:43:00,
2013-07-27 06:48:00,60.1,58.1,29.93,WNW,302,0.0,0.0,93,0.00,,,0.00,meteohub,2013-07-27 10:48:00,
2013-07-27 06:54:00,60.3,58.3,29.92,WNW,302,0.0,0.0,93,0.00,,,0.00,meteohub,2013-07-27 10:54:00,
2013-07-27 06:59:00,60.4,58.5,29.92,WNW,302,0.0,0.0,93,0.00,,,0.00,meteohub,2013-07-27 10:59:00,
2013-07-27 07:04:00,60.6,58.6,29.93,WNW,302,0.0,1.0,93,0.00,,,0.00,meteohub,2013-07-27 11:04:00,
2013-07-27 07:09:00,61.0,58.6,29.93,WNW,302,0.0,2.0,92,0.00,,,0.00,meteohub,2013-07-27 11:09:00,
2013-07-27 07:14:00,61.2,58.8,29.93,WNW,302,0.0,2.0,92,0.00,,,0.00,meteohub,2013-07-27 11:14:00,
2013-07-27 07:19:00,61.3,58.6,29.93,SSW,203,1.0,2.0,91,0.00,,,0.00,meteohub,2013-07-27 11:19:00,
2013-07-27 07:24:00,61.5,58.8,29.92,SSW,203,1.0,2.0,91,0.00,,,0.00,meteohub,2013-07-27 11:24:00,
2013-07-27 07:30:00,61.7,58.8,29.92,SW,220,0.0,2.0,90,0.00,,,0.00,meteohub,2013-07-27 11:30:00,
2013-07-27 07:35:00,61.9,59.0,29.93,WSW,251,0.0,4.0,90,0.00,,,0.00,meteohub,2013-07-27 11:35:00,
2013-07-27 07:40:00,62.1,59.2,29.93,WSW,252,0.0,4.0,90,0.00,,,0.00,meteohub,2013-07-27 11:40:00,
2013-07-27 07:45:00,62.2,59.0,29.93,NW,310,0.0,3.0,89,0.00,,,0.00,meteohub,2013-07-27 11:45:00,
2013-07-27 07:50:00,62.2,59.0,29.93,NW,310,0.0,4.0,89,0.00,,,0.00,meteohub,2013-07-27 11:50:00,
2013-07-27 07:54:00,62.4,59.4,29.93,NW,310,0.0,4.0,90,0.00,,,0.00,meteohub,2013-07-27 11:54:00,
2013-07-27 08:00:00,62.8,59.7,29.93,NW,310,0.0,4.0,90,0.00,,,0.00,meteohub,2013-07-27 12:00:00,
2013-07-27 08:05:00,63.0,59.9,29.93,NW,310,0.0,1.0,90,0.00,,,0.00,meteohub,2013-07-27 12:05:00,
2013-07-27 08:10:00,63.1,59.9,29.93,NW,310,0.0,2.0,89,0.00,,,0.00,meteohub,2013-07-27 12:10:00,
2013-07-27 08:15:00,63.3,60.1,29.92,NW,325,2.0,2.0,89,0.00,,,0.00,meteohub,2013-07-27 12:15:00,
2013-07-27 08:21:00,63.7,60.1,29.92,West,260,1.0,3.0,88,0.00,,,0.00,meteohub,2013-07-27 12:21:00,
2013-07-27 08:26:00,64.0,60.4,29.93,WNW,290,2.0,3.0,88,0.00,,,0.00,meteohub,2013-07-27 12:26:00,
2013-07-27 08:31:00,64.2,60.3,29.93,WNW,300,1.0,6.0,87,0.00,,,0.00,meteohub,2013-07-27 12:31:00,
2013-07-27 08:36:00,64.6,60.6,29.93,WNW,296,1.0,6.0,87,0.00,,,0.00,meteohub,2013-07-27 12:36:00,
2013-07-27 08:41:00,64.6,60.6,29.92,NW,309,0.0,6.0,87,0.00,,,0.00,meteohub,2013-07-27 12:41:00,
2013-07-27 08:46:00,64.8,60.8,29.92,NW,319,1.0,5.0,87,0.00,,,0.00,meteohub,2013-07-27 12:46:00,
2013-07-27 08:51:00,64.8,60.8,29.92,NW,321,2.0,5.0,87,0.00,,,0.00,meteohub,2013-07-27 12:51:00,
2013-07-27 08:56:00,64.8,60.8,29.92,WNW,290,2.0,5.0,87,0.00,,,0.00,meteohub,2013-07-27 12:56:00,
2013-07-27 09:01:00,64.8,60.8,29.92,WNW,293,1.0,5.0,87,0.00,,,0.00,meteohub,2013-07-27 13:01:00,
2013-07-27 09:07:00,64.9,61.0,29.93,WNW,293,2.0,5.0,87,0.00,,,0.00,meteohub,2013-07-27 13:07:00,
2013-07-27 09:12:00,64.9,61.0,29.92,WNW,296,1.0,4.0,87,0.00,,,0.00,meteohub,2013-07-27 13:12:00,
2013-07-27 09:17:00,64.9,61.0,29.92,WNW,293,2.0,4.0,87,0.00,,,0.00,meteohub,2013-07-27 13:17:00,
2013-07-27 09:22:00,65.1,61.2,29.91,WNW,300,1.0,4.0,87,0.00,,,0.00,meteohub,2013-07-27 13:22:00,
2013-07-27 09:27:00,65.1,61.2,29.92,WNW,300,1.0,4.0,87,0.00,,,0.00,meteohub,2013-07-27 13:27:00,
2013-07-27 09:32:00,65.1,61.5,29.91,NW,304,0.0,3.0,88,0.00,,,0.00,meteohub,2013-07-27 13:32:00,
2013-07-27 09:37:00,65.1,61.5,29.91,NW,304,2.0,3.0,88,0.00,,,0.00,meteohub,2013-07-27 13:37:00,
2013-07-27 09:42:00,65.1,61.5,29.91,NW,326,3.0,3.0,88,0.00,,,0.00,meteohub,2013-07-27 13:42:00,
2013-07-27 09:47:00,64.9,61.3,29.91,NNW,338,1.0,4.0,88,0.00,,,0.00,meteohub,2013-07-27 13:47:00,
2013-07-27 09:52:00,65.1,61.5,29.91,NW,324,1.0,4.0,88,0.00,,,0.00,meteohub,2013-07-27 13:52:00,
2013-07-27 09:57:00,64.9,61.3,29.91,WNW,297,0.0,4.0,88,0.00,,,0.00,meteohub,2013-07-27 13:57:00,
2013-07-27 10:02:00,64.9,61.7,29.91,WNW,297,1.0,3.0,89,0.00,,,0.00,meteohub,2013-07-27 14:02:00,
2013-07-27 10:08:00,64.9,61.9,29.91,WNW,297,1.0,3.0,90,0.00,,,0.00,meteohub,2013-07-27 14:08:00,
2013-07-27 10:13:00,64.9,61.9,29.92,WNW,297,2.0,3.0,90,0.00,,,0.00,meteohub,2013-07-27 14:13:00,
2013-07-27 10:18:00,64.8,61.7,29.92,NW,321,2.0,3.0,90,0.00,,,0.00,meteohub,2013-07-27 14:18:00,
2013-07-27 10:23:00,64.6,61.9,29.92,North,349,1.0,3.0,91,0.01,,,0.01,meteohub,2013-07-27 14:23:00,
2013-07-27 10:28:00,64.4,62.1,29.93,NNW,342,3.0,4.0,92,0.01,,,0.01,meteohub,2013-07-27 14:28:00,
2013-07-27 10:33:00,64.4,62.1,29.93,NNW,337,2.0,4.0,92,0.01,,,0.01,meteohub,2013-07-27 14:33:00,
2013-07-27 10:39:00,64.2,61.9,29.93,WNW,298,2.0,4.0,92,0.02,,,0.02,meteohub,2013-07-27 14:39:00,
2013-07-27 10:44:00,64.2,62.2,29.93,WNW,295,1.0,3.0,93,0.02,,,0.02,meteohub,2013-07-27 14:44:00,
2013-07-27 10:49:00,64.2,62.2,29.93,WNW,295,0.0,3.0,93,0.02,,,0.02,meteohub,2013-07-27 14:49:00,
2013-07-27 10:54:00,64.2,62.4,29.93,WNW,294,0.0,3.0,94,0.02,,,0.02,meteohub,2013-07-27 14:54:00,
2013-07-27 10:59:00,64.4,62.6,29.93,WNW,294,0.0,3.0,94,0.02,,,0.02,meteohub,2013-07-27 14:59:00,
2013-07-27 11:04:00,64.6,62.8,29.93,WNW,295,0.0,3.0,94,0.03,,,0.03,meteohub,2013-07-27 15:04:00,
2013-07-27 11:10:00,64.6,62.8,29.93,NW,304,2.0,3.0,94,0.03,,,0.03,meteohub,2013-07-27 15:10:00,
2013-07-27 11:15:00,64.6,62.8,29.93,SW,227,1.0,4.0,94,0.04,,,0.04,meteohub,2013-07-27 15:15:00,
2013-07-27 11:20:00,64.6,62.8,29.93,WNW,284,2.0,4.0,94,0.03,,,0.04,meteohub,2013-07-27 15:20:00,
2013-07-27 11:25:00,64.4,62.6,29.92,WNW,297,2.0,4.0,94,0.03,,,0.04,meteohub,2013-07-27 15:25:00,
2013-07-27 11:30:00,64.2,61.9,29.92,West,265,1.0,5.0,92,0.03,,,0.04,meteohub,2013-07-27 15:30:00,
2013-07-27 11:35:00,64.2,61.9,29.92,NW,319,2.0,5.0,92,0.02,,,0.04,meteohub,2013-07-27 15:35:00,
2013-07-27 11:40:00,64.0,61.3,29.92,SW,219,1.0,5.0,91,0.02,,,0.04,meteohub,2013-07-27 15:40:00,
2013-07-27 11:46:00,64.0,61.3,29.92,WNW,283,2.0,4.0,91,0.03,,,0.05,meteohub,2013-07-27 15:46:00,
2013-07-27 11:51:00,64.0,61.3,29.92,West,270,1.0,4.0,91,0.03,,,0.05,meteohub,2013-07-27 15:51:00,
2013-07-27 11:56:00,64.0,61.3,29.92,WSW,246,1.0,3.0,91,0.03,,,0.06,meteohub,2013-07-27 15:56:00,
2013-07-27 12:01:00,64.0,61.7,29.91,SW,217,4.0,4.0,92,0.03,,,0.06,meteohub,2013-07-27 16:01:00,
2013-07-27 12:06:00,64.0,62.1,29.91,SSW,203,2.0,7.0,93,0.03,,,0.06,meteohub,2013-07-27 16:06:00,
2013-07-27 12:11:00,64.2,62.2,29.91,SW,219,2.0,7.0,93,0.02,,,0.06,meteohub,2013-07-27 16:11:00,
2013-07-27 12:16:00,64.2,62.2,29.91,South,177,1.0,7.0,93,0.02,,,0.06,meteohub,2013-07-27 16:16:00,
2013-07-27 12:21:00,64.2,62.2,29.91,SSE,154,3.0,6.0,93,0.02,,,0.06,meteohub,2013-07-27 16:21:00,
2013-07-27 12:27:00,64.2,62.2,29.91,SSW,194,5.0,6.0,93,0.02,,,0.06,meteohub,2013-07-27 16:27:00,
2013-07-27 12:32:00,64.0,62.1,29.90,SW,217,1.0,7.0,93,0.02,,,0.06,meteohub,2013-07-27 16:32:00,
2013-07-27 12:37:00,64.0,61.7,29.90,WSW,244,3.0,7.0,92,0.04,,,0.08,meteohub,2013-07-27 16:37:00,
2013-07-27 12:42:00,64.0,62.1,29.90,SSW,212,1.0,6.0,93,0.03,,,0.08,meteohub,2013-07-27 16:42:00,
2013-07-27 12:47:00,64.0,62.1,29.90,SW,236,3.0,5.0,93,0.04,,,0.09,meteohub,2013-07-27 16:47:00,
2013-07-27 12:52:00,64.0,62.1,29.90,West,269,0.0,5.0,93,0.04,,,0.09,meteohub,2013-07-27 16:52:00,
2013-07-27 12:57:00,64.2,62.4,29.90,NW,311,2.0,5.0,94,0.04,,,0.10,meteohub,2013-07-27 16:57:00,
2013-07-27 13:02:00,64.2,62.2,29.90,West,271,5.0,5.0,93,0.04,,,0.10,meteohub,2013-07-27 17:02:00,
2013-07-27 13:07:00,64.2,61.9,29.89,West,261,6.0,8.0,92,0.04,,,0.10,meteohub,2013-07-27 17:07:00,
2013-07-27 13:12:00,64.2,61.9,29.89,SW,235,2.0,8.0,92,0.04,,,0.10,meteohub,2013-07-27 17:12:00,
2013-07-27 13:18:00,64.4,62.4,29.89,West,263,2.0,7.0,93,0.04,,,0.10,meteohub,2013-07-27 17:18:00,
2013-07-27 13:23:00,64.8,62.6,29.89,WSW,243,3.0,7.0,93,0.04,,,0.10,meteohub,2013-07-27 17:23:00,
2013-07-27 13:28:00,64.9,62.8,29.89,NW,315,1.0,6.0,93,0.04,,,0.10,meteohub,2013-07-27 17:28:00,
2013-07-27 13:33:00,65.1,63.0,29.89,SSW,213,0.0,6.0,93,0.04,,,0.10,meteohub,2013-07-27 17:33:00,
2013-07-27 13:38:00,65.1,62.8,29.89,SW,223,3.0,7.0,92,0.02,,,0.10,meteohub,2013-07-27 17:38:00,
2013-07-27 13:43:00,65.1,62.8,29.89,SSW,192,0.0,8.0,92,0.02,,,0.10,meteohub,2013-07-27 17:43:00,
2013-07-27 13:49:00,65.3,63.1,29.89,NNW,335,3.0,8.0,93,0.01,,,0.10,meteohub,2013-07-27 17:49:00,
2013-07-27 13:54:00,65.3,63.5,29.89,WSW,237,3.0,8.0,94,0.01,,,0.10,meteohub,2013-07-27 17:54:00,
2013-07-27 13:59:00,65.5,63.7,29.89,SW,230,1.0,7.0,94,0.00,,,0.10,meteohub,2013-07-27 17:59:00,
2013-07-27 14:04:00,65.5,63.7,29.89,SW,222,4.0,5.0,94,0.01,,,0.11,meteohub,2013-07-27 18:04:00,
2013-07-27 14:09:00,65.7,63.9,29.88,WSW,247,0.0,4.0,94,0.01,,,0.11,meteohub,2013-07-27 18:09:00,
2013-07-27 14:14:00,65.8,64.0,29.89,SSE,156,1.0,6.0,94,0.01,,,0.11,meteohub,2013-07-27 18:14:00,
2013-07-27 14:19:00,65.8,64.0,29.88,SW,236,2.0,6.0,94,0.01,,,0.11,meteohub,2013-07-27 18:19:00,
2013-07-27 14:24:00,66.0,64.2,29.88,ESE,113,2.0,6.0,94,0.02,,,0.12,meteohub,2013-07-27 18:24:00,
2013-07-27 14:30:00,66.0,64.2,29.88,SSW,198,4.0,6.0,94,0.02,,,0.12,meteohub,2013-07-27 18:30:00,
2013-07-27 14:35:00,66.0,64.2,29.87,SSW,207,1.0,7.0,94,0.02,,,0.12,meteohub,2013-07-27 18:35:00,
2013-07-27 14:40:00,66.0,64.2,29.87,SSW,196,3.0,7.0,94,0.02,,,0.12,meteohub,2013-07-27 18:40:00,
2013-07-27 14:45:00,66.0,63.9,29.87,West,267,4.0,7.0,93,0.02,,,0.12,meteohub,2013-07-27 18:45:00,
2013-07-27 14:50:00,66.0,63.9,29.87,NW,325,3.0,7.0,93,0.02,,,0.12,meteohub,2013-07-27 18:50:00,
2013-07-27 14:55:00,66.4,64.2,29.87,WNW,284,1.0,8.0,93,0.03,,,0.13,meteohub,2013-07-27 18:55:00,
2013-07-27 15:00:00,66.6,64.4,29.87,SSW,198,1.0,8.0,93,0.02,,,0.13,meteohub,2013-07-27 19:00:00,
2013-07-27 15:06:00,66.6,64.2,29.87,West,280,4.0,7.0,92,0.02,,,0.13,meteohub,2013-07-27 19:06:00,
2013-07-27 15:11:00,66.6,64.2,29.86,WNW,290,1.0,7.0,92,0.02,,,0.13,meteohub,2013-07-27 19:11:00,
2013-07-27 15:16:00,66.6,64.2,29.86,WNW,289,2.0,7.0,92,0.01,,,0.13,meteohub,2013-07-27 19:16:00,
2013-07-27 15:21:00,66.4,64.0,29.86,WSW,249,2.0,6.0,92,0.01,,,0.13,meteohub,2013-07-27 19:21:00,
2013-07-27 15:26:00,66.6,64.4,29.86,WSW,252,0.0,6.0,93,0.01,,,0.13,meteohub,2013-07-27 19:26:00,
2013-07-27 15:32:00,66.7,64.6,29.86,WNW,293,1.0,6.0,93,0.01,,,0.13,meteohub,2013-07-27 19:32:00,
2013-07-27 15:37:00,66.9,64.8,29.85,WNW,288,2.0,5.0,93,0.01,,,0.13,meteohub,2013-07-27 19:37:00,
2013-07-27 15:42:00,67.3,65.1,29.85,SW,216,6.0,6.0,93,0.01,,,0.13,meteohub,2013-07-27 19:42:00,
2013-07-27 15:47:00,67.3,65.1,29.85,West,276,4.0,7.0,93,0.01,,,0.13,meteohub,2013-07-27 19:47:00,
2013-07-27 15:52:00,67.5,65.3,29.85,WNW,282,1.0,7.0,93,0.01,,,0.13,meteohub,2013-07-27 19:52:00,
2013-07-27 15:57:00,67.5,65.1,29.85,West,273,0.0,7.0,92,0.00,,,0.13,meteohub,2013-07-27 19:57:00,
2013-07-27 16:02:00,67.6,65.5,29.84,SW,232,1.0,5.0,93,0.00,,,0.13,meteohub,2013-07-27 20:02:00,
2013-07-27 16:07:00,67.6,65.3,29.84,WSW,241,1.0,4.0,92,0.00,,,0.13,meteohub,2013-07-27 20:07:00,
2013-07-27 16:12:00,67.5,64.8,29.84,WNW,282,0.0,4.0,91,0.00,,,0.13,meteohub,2013-07-27 20:12:00,
2013-07-27 16:18:00,67.3,64.6,29.84,WNW,291,1.0,4.0,91,0.00,,,0.13,meteohub,2013-07-27 20:18:00,
2013-07-27 16:23:00,66.7,64.0,29.84,West,267,2.0,4.0,91,0.03,,,0.16,meteohub,2013-07-27 20:23:00,
2013-07-27 16:29:00,66.6,64.2,29.84,West,267,1.0,4.0,92,0.12,,,0.25,meteohub,2013-07-27 20:29:00,
2013-07-27 16:34:00,66.4,64.2,29.84,South,178,3.0,3.0,93,0.12,,,0.25,meteohub,2013-07-27 20:34:00,
2013-07-27 16:39:00,66.2,64.0,29.84,WSW,257,3.0,3.0,93,0.12,,,0.25,meteohub,2013-07-27 20:39:00,
2013-07-27 16:44:00,66.2,64.0,29.84,SW,216,0.0,5.0,93,0.12,,,0.25,meteohub,2013-07-27 20:44:00,
2013-07-27 16:49:00,66.6,64.8,29.84,WSW,255,2.0,5.0,94,0.12,,,0.25,meteohub,2013-07-27 20:49:00,
2013-07-27 16:54:00,66.6,64.4,29.84,WSW,238,4.0,5.0,93,0.12,,,0.25,meteohub,2013-07-27 20:54:00,
2013-07-27 16:59:00,66.4,64.0,29.84,NW,306,2.0,4.0,92,0.12,,,0.25,meteohub,2013-07-27 20:59:00,
2013-07-27 17:05:00,66.4,64.2,29.84,West,281,2.0,5.0,93,0.12,,,0.25,meteohub,2013-07-27 21:05:00,
2013-07-27 17:10:00,66.6,64.4,29.84,NW,314,1.0,5.0,93,0.12,,,0.25,meteohub,2013-07-27 21:10:00,
2013-07-27 17:15:00,66.6,64.4,29.83,NW,304,4.0,7.0,93,0.11,,,0.25,meteohub,2013-07-27 21:15:00,
2013-07-27 17:20:00,66.6,64.4,29.83,SW,221,1.0,6.0,93,0.01,,,0.25,meteohub,2013-07-27 21:20:00,
2013-07-27 17:25:00,66.6,64.4,29.83,West,265,2.0,6.0,93,0.00,,,0.25,meteohub,2013-07-27 21:25:00,
2013-07-27 17:30:00,66.4,64.2,29.83,WNW,286,1.0,6.0,93,0.00,,,0.25,meteohub,2013-07-27 21:30:00,
2013-07-27 17:35:00,66.2,64.0,29.83,WNW,285,0.0,5.0,93,0.00,,,0.25,meteohub,2013-07-27 21:35:00,
2013-07-27 17:41:00,66.0,63.9,29.82,NW,317,1.0,5.0,93,0.00,,,0.25,meteohub,2013-07-27 21:41:00,
2013-07-27 17:46:00,66.2,64.4,29.82,NW,316,0.0,4.0,94,0.00,,,0.25,meteohub,2013-07-27 21:46:00,
2013-07-27 17:51:00,66.2,64.4,29.82,West,281,3.0,4.0,94,0.00,,,0.25,meteohub,2013-07-27 21:51:00,
2013-07-27 17:57:00,66.2,64.4,29.82,West,281,0.0,3.0,94,0.00,,,0.25,meteohub,2013-07-27 21:57:00,
2013-07-27 18:02:00,66.2,64.4,29.82,WNW,283,3.0,3.0,94,0.00,,,0.25,meteohub,2013-07-27 22:02:00,
2013-07-27 18:07:00,66.2,64.0,29.82,WNW,284,1.0,5.0,93,0.00,,,0.25,meteohub,2013-07-27 22:07:00,
2013-07-27 18:12:00,66.2,64.0,29.82,West,263,1.0,5.0,93,0.00,,,0.25,meteohub,2013-07-27 22:12:00,
2013-07-27 18:17:00,66.0,63.9,29.82,West,279,4.0,5.0,93,0.00,,,0.25,meteohub,2013-07-27 22:17:00,
2013-07-27 18:22:00,66.2,64.0,29.82,WNW,282,5.0,5.0,93,0.01,,,0.26,meteohub,2013-07-27 22:22:00,
2013-07-27 18:27:00,66.6,64.4,29.81,NNW,347,2.0,8.0,93,0.01,,,0.26,meteohub,2013-07-27 22:27:00,
2013-07-27 18:33:00,67.1,64.9,29.81,West,260,1.0,8.0,93,0.01,,,0.26,meteohub,2013-07-27 22:33:00,
2013-07-27 18:38:00,67.6,65.5,29.81,WNW,292,8.0,8.0,93,0.01,,,0.26,meteohub,2013-07-27 22:38:00,
2013-07-27 18:43:00,67.6,64.9,29.81,West,270,2.0,7.0,91,0.01,,,0.26,meteohub,2013-07-27 22:43:00,
2013-07-27 18:48:00,67.6,64.6,29.81,WSW,254,1.0,8.0,90,0.01,,,0.26,meteohub,2013-07-27 22:48:00,
2013-07-27 18:53:00,67.6,64.2,29.81,WNW,287,4.0,11.0,89,0.01,,,0.26,meteohub,2013-07-27 22:53:00,
2013-07-27 18:59:00,67.5,64.4,29.81,WNW,287,2.0,11.0,90,0.01,,,0.26,meteohub,2013-07-27 22:59:00,
2013-07-27 19:04:00,67.3,64.2,29.81,WNW,302,1.0,11.0,90,0.01,,,0.26,meteohub,2013-07-27 23:04:00,
2013-07-27 19:09:00,66.9,63.9,29.81,WNW,298,2.0,11.0,90,0.01,,,0.26,meteohub,2013-07-27 23:09:00,
2013-07-27 19:14:00,66.7,63.7,29.81,WNW,288,3.0,11.0,90,0.01,,,0.26,meteohub,2013-07-27 23:14:00,
2013-07-27 19:19:00,66.6,63.5,29.81,WSW,245,1.0,11.0,90,0.01,,,0.26,meteohub,2013-07-27 23:19:00,
2013-07-27 19:25:00,66.6,63.9,29.81,WNW,302,2.0,11.0,91,0.00,,,0.26,meteohub,2013-07-27 23:25:00,
2013-07-27 19:30:00,66.6,63.9,29.81,WNW,286,3.0,10.0,91,0.00,,,0.26,meteohub,2013-07-27 23:30:00,
2013-07-27 19:35:00,66.6,63.9,29.81,SW,221,3.0,10.0,91,0.00,,,0.26,meteohub,2013-07-27 23:35:00,
2013-07-27 19:40:00,66.6,63.9,29.81,West,277,6.0,6.0,91,0.00,,,0.26,meteohub,2013-07-27 23:40:00,
2013-07-27 19:45:00,66.6,63.9,29.81,WSW,255,3.0,7.0,91,0.00,,,0.26,meteohub,2013-07-27 23:45:00,
2013-07-27 19:51:00,66.2,63.5,29.81,NW,313,3.0,7.0,91,0.00,,,0.26,meteohub,2013-07-27 23:51:00,
2013-07-27 19:56:00,66.0,63.7,29.81,West,268,4.0,7.0,92,0.00,,,0.26,meteohub,2013-07-27 23:56:00,
2013-07-27 20:01:00,65.8,63.5,29.82,West,281,6.0,9.0,92,0.00,,,0.26,meteohub,2013-07-28 00:01:00,
2013-07-27 20:07:00,65.8,63.7,29.82,West,279,2.0,9.0,93,0.00,,,0.00,meteohub,2013-07-28 00:07:00,
2013-07-27 20:12:00,65.8,63.7,29.82,NNW,340,5.0,9.0,93,0.00,,,0.00,meteohub,2013-07-28 00:12:00,
2013-07-27 20:17:00,65.8,63.7,29.82,NNW,327,4.0,8.0,93,0.00,,,0.00,meteohub,2013-07-28 00:17:00,
2013-07-27 20:23:00,65.8,63.7,29.82,NW,317,3.0,8.0,93,0.00,,,0.00,meteohub,2013-07-28 00:23:00,
2013-07-27 20:28:00,65.7,63.5,29.82,West,277,1.0,8.0,93,0.00,,,0.00,meteohub,2013-07-28 00:28:00,
2013-07-27 20:33:00,65.7,63.5,29.82,WNW,300,2.0,8.0,93,0.00,,,0.00,meteohub,2013-07-28 00:33:00,
2013-07-27 20:38:00,65.5,63.3,29.82,WNW,303,1.0,8.0,93,0.00,,,0.00,meteohub,2013-07-28 00:38:00,
2013-07-27 20:43:00,65.1,63.0,29.82,WNW,290,2.0,8.0,93,0.00,,,0.00,meteohub,2013-07-28 00:43:00,
2013-07-27 20:49:00,65.1,63.0,29.82,WNW,301,0.0,7.0,93,0.00,,,0.00,meteohub,2013-07-28 00:49:00,
2013-07-27 20:54:00,64.9,62.8,29.82,West,272,1.0,6.0,93,0.00,,,0.00,meteohub,2013-07-28 00:54:00,
2013-07-27 20:59:00,64.9,63.1,29.82,NW,304,0.0,6.0,94,0.00,,,0.00,meteohub,2013-07-28 00:59:00,
2013-07-27 21:04:00,64.8,63.0,29.83,WNW,292,1.0,5.0,94,0.00,,,0.00,meteohub,2013-07-28 01:04:00,
2013-07-27 21:09:00,64.8,63.0,29.83,WNW,286,1.0,5.0,94,0.00,,,0.00,meteohub,2013-07-28 01:09:00,
2013-07-27 21:14:00,64.6,62.8,29.83,West,280,2.0,5.0,94,0.00,,,0.00,meteohub,2013-07-28 01:14:00,
2013-07-27 21:19:00,64.6,62.8,29.83,NW,305,1.0,8.0,94,0.00,,,0.00,meteohub,2013-07-28 01:19:00,
2013-07-27 21:25:00,64.6,62.8,29.83,WNW,286,4.0,8.0,94,0.00,,,0.00,meteohub,2013-07-28 01:25:00,
2013-07-27 21:30:00,64.6,63.1,29.83,West,276,1.0,8.0,95,0.00,,,0.00,meteohub,2013-07-28 01:30:00,
2013-07-27 21:35:00,64.6,63.1,29.83,WNW,283,0.0,5.0,95,0.00,,,0.00,meteohub,2013-07-28 01:35:00,
2013-07-27 21:40:00,64.6,63.1,29.83,NW,308,0.0,7.0,95,0.00,,,0.00,meteohub,2013-07-28 01:40:00,
2013-07-27 21:45:00,64.6,63.1,29.84,West,272,1.0,7.0,95,0.00,,,0.00,meteohub,2013-07-28 01:45:00,
2013-07-27 21:50:00,64.6,63.1,29.84,WNW,286,2.0,6.0,95,0.00,,,0.00,meteohub,2013-07-28 01:50:00,
2013-07-27 21:55:00,64.6,63.1,29.84,WSW,257,2.0,5.0,95,0.00,,,0.00,meteohub,2013-07-28 01:55:00,
2013-07-27 22:01:00,64.6,63.1,29.84,West,267,3.0,5.0,95,0.00,,,0.00,meteohub,2013-07-28 02:01:00,
2013-07-27 22:06:00,64.6,63.1,29.84,West,273,2.0,5.0,95,0.00,,,0.00,meteohub,2013-07-28 02:06:00,
2013-07-27 22:11:00,64.6,63.1,29.84,West,276,1.0,4.0,95,0.00,,,0.00,meteohub,2013-07-28 02:11:00,
2013-07-27 22:16:00,64.6,63.1,29.84,WSW,252,3.0,5.0,95,0.00,,,0.00,meteohub,2013-07-28 02:16:00,
2013-07-27 22:22:00,64.6,63.1,29.84,West,277,1.0,6.0,95,0.00,,,0.00,meteohub,2013-07-28 02:22:00,
2013-07-27 22:27:00,64.6,63.1,29.84,WSW,257,1.0,7.0,95,0.00,,,0.00,meteohub,2013-07-28 02:27:00,
2013-07-27 22:32:00,64.6,63.1,29.84,SW,224,0.0,7.0,95,0.00,,,0.00,meteohub,2013-07-28 02:32:00,
2013-07-27 22:37:00,64.6,63.1,29.83,WSW,258,1.0,7.0,95,0.00,,,0.00,meteohub,2013-07-28 02:37:00,
2013-07-27 22:42:00,64.6,63.1,29.83,SW,214,1.0,4.0,95,0.00,,,0.00,meteohub,2013-07-28 02:42:00,
2013-07-27 22:48:00,64.4,63.0,29.83,West,261,2.0,4.0,95,0.00,,,0.00,meteohub,2013-07-28 02:48:00,
2013-07-27 22:53:00,64.2,62.8,29.83,WSW,252,0.0,3.0,95,0.00,,,0.00,meteohub,2013-07-28 02:53:00,
2013-07-27 22:58:00,64.0,62.6,29.83,SW,225,0.0,3.0,95,0.00,,,0.00,meteohub,2013-07-28 02:58:00,
2013-07-27 23:03:00,64.0,62.6,29.83,WNW,290,1.0,5.0,95,0.00,,,0.00,meteohub,2013-07-28 03:03:00,
2013-07-27 23:08:00,63.9,62.4,29.83,WNW,295,1.0,5.0,95,0.00,,,0.00,meteohub,2013-07-28 03:08:00,
2013-07-27 23:13:00,63.9,62.4,29.83,West,281,3.0,3.0,95,0.00,,,0.00,meteohub,2013-07-28 03:13:00,
2013-07-27 23:18:00,63.7,62.2,29.84,NW,315,2.0,4.0,95,0.00,,,0.00,meteohub,2013-07-28 03:18:00,
2013-07-27 23:24:00,63.7,62.6,29.84,NW,304,1.0,5.0,96,0.00,,,0.00,meteohub,2013-07-28 03:24:00,
2013-07-27 23:29:00,63.9,62.8,29.84,WNW,302,2.0,6.0,96,0.00,,,0.00,meteohub,2013-07-28 03:29:00,
2013-07-27 23:34:00,63.9,62.8,29.84,NNW,346,0.0,6.0,96,0.00,,,0.00,meteohub,2013-07-28 03:34:00,
2013-07-27 23:39:00,63.9,62.4,29.85,WNW,286,1.0,6.0,95,0.00,,,0.00,meteohub,2013-07-28 03:39:00,
2013-07-27 23:44:00,63.7,62.2,29.85,NW,308,1.0,6.0,95,0.01,,,0.01,meteohub,2013-07-28 03:44:00,
2013-07-27 23:49:00,63.3,61.9,29.85,NW,307,0.0,5.0,95,0.01,,,0.01,meteohub,2013-07-28 03:49:00,
2013-07-27 23:54:00,63.1,61.7,29.85,NW,307,1.0,4.0,95,0.01,,,0.01,meteohub,2013-07-28 03:54:00,